sensor_id;sensor_type;location;lat;lon;timestamp;P1;durP1;ratioP1;P2;durP2;ratioP2
58208;SDS011;44006;52.028;4.696;2023-04-03T00:00:39;5.82;;;1.65;;
58208;SDS011;44006;52.028;4.696;2023-04-03T00:03:04;3.53;;;1.58;;
58208;SDS011;44006;52.028;4.696;2023-04-03T00:05:30;2.83;;;1.50;;
58208;SDS011;44006;52.028;4.696;2023-04-03T00:07:55;4.80;;;1.48;;
58208;SDS011;44006;52.028;4.696;2023-04-03T00:10:22;2.78;;;1.45;;
58208;SDS011;44006;52.028;4.696;2023-04-03T00:12:47;3.25;;;1.60;;
58208;SDS011;44006;52.028;4.696;2023-04-03T00:15:13;2.90;;;1.40;;
58208;SDS011;44006;52.028;4.696;2023-04-03T00:17:38;3.95;;;1.70;;
58208;SDS011;44006;52.028;4.696;2023-04-03T00:20:03;3.95;;;1.65;;
58208;SDS011;44006;52.028;4.696;2023-04-03T00:22:29;4.57;;;1.80;;
58208;SDS011;44006;52.028;4.696;2023-04-03T00:24:55;5.72;;;1.90;;
58208;SDS011;44006;52.028;4.696;2023-04-03T00:27:20;6.78;;;1.90;;
58208;SDS011;44006;52.028;4.696;2023-04-03T00:29:45;5.32;;;1.77;;
58208;SDS011;44006;52.028;4.696;2023-04-03T00:32:12;5.28;;;2.20;;
58208;SDS011;44006;52.028;4.696;2023-04-03T00:34:40;3.22;;;1.63;;
58208;SDS011;44006;52.028;4.696;2023-04-03T00:37:05;2.55;;;1.50;;
58208;SDS011;44006;52.028;4.696;2023-04-03T00:39:33;3.88;;;1.48;;
58208;SDS011;44006;52.028;4.696;2023-04-03T00:41:59;6.13;;;1.88;;
58208;SDS011;44006;52.028;4.696;2023-04-03T00:46:58;4.35;;;1.50;;
58208;SDS011;44006;52.028;4.696;2023-04-03T00:49:33;4.28;;;1.60;;
58208;SDS011;44006;52.028;4.696;2023-04-03T00:51:59;5.32;;;1.98;;
58208;SDS011;44006;52.028;4.696;2023-04-03T00:54:25;4.85;;;1.70;;
58208;SDS011;44006;52.028;4.696;2023-04-03T00:56:53;4.18;;;1.67;;
58208;SDS011;44006;52.028;4.696;2023-04-03T00:59:24;4.63;;;1.40;;
58208;SDS011;44006;52.028;4.696;2023-04-03T01:01:52;5.22;;;1.42;;
58208;SDS011;44006;52.028;4.696;2023-04-03T01:04:29;5.05;;;1.63;;
58208;SDS011;44006;52.028;4.696;2023-04-03T01:06:55;4.40;;;1.52;;
58208;SDS011;44006;52.028;4.696;2023-04-03T01:09:21;4.25;;;1.60;;
58208;SDS011;44006;52.028;4.696;2023-04-03T01:11:48;3.75;;;1.50;;
58208;SDS011;44006;52.028;4.696;2023-04-03T01:14:13;5.60;;;1.70;;
58208;SDS011;44006;52.028;4.696;2023-04-03T01:16:39;4.50;;;1.80;;
58208;SDS011;44006;52.028;4.696;2023-04-03T01:19:09;4.72;;;1.77;;
58208;SDS011;44006;52.028;4.696;2023-04-03T01:26:32;4.30;;;1.60;;
58208;SDS011;44006;52.028;4.696;2023-04-03T01:28:58;6.30;;;2.03;;
58208;SDS011;44006;52.028;4.696;2023-04-03T01:31:25;6.43;;;1.80;;
58208;SDS011;44006;52.028;4.696;2023-04-03T01:33:51;3.85;;;1.50;;
58208;SDS011;44006;52.028;4.696;2023-04-03T01:36:21;5.75;;;1.52;;
58208;SDS011;44006;52.028;4.696;2023-04-03T01:38:51;4.57;;;1.75;;
58208;SDS011;44006;52.028;4.696;2023-04-03T01:41:17;7.20;;;1.55;;
58208;SDS011;44006;52.028;4.696;2023-04-03T01:43:42;5.47;;;1.38;;
58208;SDS011;44006;52.028;4.696;2023-04-03T01:46:10;5.53;;;1.88;;
58208;SDS011;44006;52.028;4.696;2023-04-03T01:48:35;2.72;;;1.48;;
58208;SDS011;44006;52.028;4.696;2023-04-03T01:51:02;3.72;;;1.60;;
58208;SDS011;44006;52.028;4.696;2023-04-03T01:53:29;3.35;;;1.50;;
58208;SDS011;44006;52.028;4.696;2023-04-03T01:55:54;3.72;;;1.33;;
58208;SDS011;44006;52.028;4.696;2023-04-03T01:58:19;3.50;;;1.50;;
58208;SDS011;44006;52.028;4.696;2023-04-03T02:00:45;4.10;;;1.83;;
58208;SDS011;44006;52.028;4.696;2023-04-03T02:03:10;4.15;;;2.15;;
58208;SDS011;44006;52.028;4.696;2023-04-03T02:05:36;6.43;;;1.80;;
58208;SDS011;44006;52.028;4.696;2023-04-03T02:08:03;4.03;;;1.85;;
58208;SDS011;44006;52.028;4.696;2023-04-03T02:10:29;4.03;;;1.60;;
58208;SDS011;44006;52.028;4.696;2023-04-03T02:12:54;5.00;;;1.55;;
58208;SDS011;44006;52.028;4.696;2023-04-03T02:15:19;5.15;;;1.98;;
58208;SDS011;44006;52.028;4.696;2023-04-03T02:17:45;7.25;;;1.70;;
58208;SDS011;44006;52.028;4.696;2023-04-03T02:20:11;4.10;;;1.60;;
58208;SDS011;44006;52.028;4.696;2023-04-03T02:22:39;5.72;;;1.70;;
58208;SDS011;44006;52.028;4.696;2023-04-03T02:25:09;4.38;;;1.63;;
58208;SDS011;44006;52.028;4.696;2023-04-03T02:27:35;4.10;;;1.63;;
58208;SDS011;44006;52.028;4.696;2023-04-03T02:30:01;6.13;;;2.13;;
58208;SDS011;44006;52.028;4.696;2023-04-03T02:32:26;4.93;;;2.00;;
58208;SDS011;44006;52.028;4.696;2023-04-03T02:34:51;5.30;;;2.13;;
58208;SDS011;44006;52.028;4.696;2023-04-03T02:37:17;7.60;;;2.08;;
58208;SDS011;44006;52.028;4.696;2023-04-03T02:39:42;5.13;;;1.75;;
58208;SDS011;44006;52.028;4.696;2023-04-03T02:42:08;7.60;;;2.20;;
58208;SDS011;44006;52.028;4.696;2023-04-03T02:44:34;3.42;;;1.67;;
58208;SDS011;44006;52.028;4.696;2023-04-03T02:47:00;4.43;;;1.88;;
58208;SDS011;44006;52.028;4.696;2023-04-03T02:49:26;5.00;;;1.90;;
58208;SDS011;44006;52.028;4.696;2023-04-03T02:51:52;6.28;;;2.30;;
58208;SDS011;44006;52.028;4.696;2023-04-03T02:54:17;5.32;;;1.98;;
58208;SDS011;44006;52.028;4.696;2023-04-03T02:56:42;4.22;;;2.13;;
58208;SDS011;44006;52.028;4.696;2023-04-03T02:59:08;5.63;;;1.92;;
58208;SDS011;44006;52.028;4.696;2023-04-03T03:01:34;3.83;;;1.70;;
58208;SDS011;44006;52.028;4.696;2023-04-03T03:04:11;6.22;;;1.75;;
58208;SDS011;44006;52.028;4.696;2023-04-03T03:06:38;7.05;;;2.10;;
58208;SDS011;44006;52.028;4.696;2023-04-03T03:09:04;4.63;;;1.90;;
58208;SDS011;44006;52.028;4.696;2023-04-03T03:11:30;7.75;;;1.92;;
58208;SDS011;44006;52.028;4.696;2023-04-03T03:13:56;6.82;;;2.30;;
58208;SDS011;44006;52.028;4.696;2023-04-03T03:16:21;6.75;;;2.10;;
58208;SDS011;44006;52.028;4.696;2023-04-03T03:18:47;6.13;;;2.13;;
58208;SDS011;44006;52.028;4.696;2023-04-03T03:21:12;6.10;;;2.28;;
58208;SDS011;44006;52.028;4.696;2023-04-03T03:23:37;5.38;;;2.13;;
58208;SDS011;44006;52.028;4.696;2023-04-03T03:26:04;3.88;;;2.03;;
58208;SDS011;44006;52.028;4.696;2023-04-03T03:28:29;6.05;;;2.10;;
58208;SDS011;44006;52.028;4.696;2023-04-03T03:30:55;4.72;;;2.00;;
58208;SDS011;44006;52.028;4.696;2023-04-03T03:33:20;6.88;;;2.03;;
58208;SDS011;44006;52.028;4.696;2023-04-03T03:35:46;4.35;;;2.00;;
58208;SDS011;44006;52.028;4.696;2023-04-03T03:38:12;7.80;;;1.90;;
58208;SDS011;44006;52.028;4.696;2023-04-03T03:40:38;7.80;;;2.13;;
58208;SDS011;44006;52.028;4.696;2023-04-03T03:43:04;4.03;;;1.75;;
58208;SDS011;44006;52.028;4.696;2023-04-03T03:45:29;6.50;;;2.10;;
58208;SDS011;44006;52.028;4.696;2023-04-03T03:47:55;3.90;;;1.90;;
58208;SDS011;44006;52.028;4.696;2023-04-03T03:50:20;3.95;;;1.88;;
58208;SDS011;44006;52.028;4.696;2023-04-03T03:52:45;7.47;;;2.00;;
58208;SDS011;44006;52.028;4.696;2023-04-03T03:55:11;5.32;;;2.10;;
58208;SDS011;44006;52.028;4.696;2023-04-03T03:57:36;4.18;;;1.92;;
58208;SDS011;44006;52.028;4.696;2023-04-03T04:00:01;4.88;;;2.00;;
58208;SDS011;44006;52.028;4.696;2023-04-03T04:02:27;5.40;;;2.03;;
58208;SDS011;44006;52.028;4.696;2023-04-03T04:04:52;4.28;;;1.80;;
58208;SDS011;44006;52.028;4.696;2023-04-03T04:07:18;5.63;;;1.92;;
58208;SDS011;44006;52.028;4.696;2023-04-03T04:09:43;5.72;;;2.15;;
58208;SDS011;44006;52.028;4.696;2023-04-03T04:12:08;4.40;;;2.33;;
58208;SDS011;44006;52.028;4.696;2023-04-03T04:14:34;5.22;;;1.95;;
58208;SDS011;44006;52.028;4.696;2023-04-03T04:16:59;6.80;;;2.15;;
58208;SDS011;44006;52.028;4.696;2023-04-03T04:19:25;7.32;;;3.10;;
58208;SDS011;44006;52.028;4.696;2023-04-03T04:21:51;5.13;;;2.10;;
58208;SDS011;44006;52.028;4.696;2023-04-03T04:24:16;6.03;;;2.13;;
58208;SDS011;44006;52.028;4.696;2023-04-03T04:26:42;4.03;;;1.83;;
58208;SDS011;44006;52.028;4.696;2023-04-03T04:29:08;8.13;;;2.35;;
58208;SDS011;44006;52.028;4.696;2023-04-03T04:31:34;6.82;;;2.85;;
58208;SDS011;44006;52.028;4.696;2023-04-03T04:33:59;6.15;;;2.30;;
58208;SDS011;44006;52.028;4.696;2023-04-03T04:36:25;6.60;;;2.67;;
58208;SDS011;44006;52.028;4.696;2023-04-03T04:38:50;6.65;;;2.45;;
58208;SDS011;44006;52.028;4.696;2023-04-03T04:41:18;5.60;;;2.17;;
58208;SDS011;44006;52.028;4.696;2023-04-03T04:43:46;4.70;;;2.25;;
58208;SDS011;44006;52.028;4.696;2023-04-03T04:46:11;4.63;;;2.15;;
58208;SDS011;44006;52.028;4.696;2023-04-03T04:48:37;5.85;;;2.30;;
58208;SDS011;44006;52.028;4.696;2023-04-03T04:51:05;6.55;;;2.30;;
58208;SDS011;44006;52.028;4.696;2023-04-03T04:53:32;6.90;;;2.33;;
58208;SDS011;44006;52.028;4.696;2023-04-03T04:55:57;4.55;;;2.22;;
58208;SDS011;44006;52.028;4.696;2023-04-03T04:58:23;5.03;;;1.90;;
58208;SDS011;44006;52.028;4.696;2023-04-03T05:00:57;6.18;;;2.30;;
58208;SDS011;44006;52.028;4.696;2023-04-03T05:03:23;4.88;;;2.58;;
58208;SDS011;44006;52.028;4.696;2023-04-03T05:05:48;5.03;;;2.20;;
58208;SDS011;44006;52.028;4.696;2023-04-03T05:08:13;8.73;;;2.33;;
58208;SDS011;44006;52.028;4.696;2023-04-03T05:10:38;6.88;;;2.42;;
58208;SDS011;44006;52.028;4.696;2023-04-03T05:13:05;5.50;;;2.22;;
58208;SDS011;44006;52.028;4.696;2023-04-03T05:15:31;8.35;;;2.40;;
58208;SDS011;44006;52.028;4.696;2023-04-03T05:17:56;6.68;;;2.30;;
58208;SDS011;44006;52.028;4.696;2023-04-03T05:20:24;7.32;;;2.30;;
58208;SDS011;44006;52.028;4.696;2023-04-03T05:22:50;6.90;;;2.40;;
58208;SDS011;44006;52.028;4.696;2023-04-03T05:25:15;4.10;;;1.92;;
58208;SDS011;44006;52.028;4.696;2023-04-03T05:27:40;5.78;;;2.38;;
58208;SDS011;44006;52.028;4.696;2023-04-03T05:30:06;6.90;;;2.90;;
58208;SDS011;44006;52.028;4.696;2023-04-03T05:32:32;3.75;;;2.03;;
58208;SDS011;44006;52.028;4.696;2023-04-03T05:34:57;8.40;;;2.67;;
58208;SDS011;44006;52.028;4.696;2023-04-03T05:37:22;10.15;;;2.72;;
58208;SDS011;44006;52.028;4.696;2023-04-03T05:39:48;6.57;;;2.22;;
58208;SDS011;44006;52.028;4.696;2023-04-03T05:42:13;7.25;;;2.28;;
58208;SDS011;44006;52.028;4.696;2023-04-03T05:44:38;5.22;;;2.50;;
58208;SDS011;44006;52.028;4.696;2023-04-03T05:47:04;6.32;;;2.70;;
58208;SDS011;44006;52.028;4.696;2023-04-03T05:49:30;6.88;;;2.60;;
58208;SDS011;44006;52.028;4.696;2023-04-03T05:51:55;7.30;;;2.60;;
58208;SDS011;44006;52.028;4.696;2023-04-03T05:54:22;5.38;;;2.22;;
58208;SDS011;44006;52.028;4.696;2023-04-03T05:56:48;6.57;;;2.60;;
58208;SDS011;44006;52.028;4.696;2023-04-03T05:59:14;9.40;;;2.70;;
58208;SDS011;44006;52.028;4.696;2023-04-03T06:01:39;8.25;;;2.55;;
58208;SDS011;44006;52.028;4.696;2023-04-03T06:04:05;6.35;;;2.53;;
58208;SDS011;44006;52.028;4.696;2023-04-03T06:06:47;7.40;;;3.17;;
58208;SDS011;44006;52.028;4.696;2023-04-03T06:09:13;7.32;;;2.65;;
58208;SDS011;44006;52.028;4.696;2023-04-03T06:11:38;6.47;;;2.83;;
58208;SDS011;44006;52.028;4.696;2023-04-03T06:14:04;6.20;;;3.10;;
58208;SDS011;44006;52.028;4.696;2023-04-03T06:16:29;8.43;;;3.13;;
58208;SDS011;44006;52.028;4.696;2023-04-03T06:18:54;7.50;;;2.65;;
58208;SDS011;44006;52.028;4.696;2023-04-03T06:21:21;6.82;;;2.63;;
58208;SDS011;44006;52.028;4.696;2023-04-03T06:23:47;5.90;;;2.60;;
58208;SDS011;44006;52.028;4.696;2023-04-03T06:26:12;8.18;;;2.90;;
58208;SDS011;44006;52.028;4.696;2023-04-03T06:28:38;5.30;;;2.05;;
58208;SDS011;44006;52.028;4.696;2023-04-03T06:31:03;6.68;;;2.70;;
58208;SDS011;44006;52.028;4.696;2023-04-03T06:33:28;8.63;;;2.60;;
58208;SDS011;44006;52.028;4.696;2023-04-03T06:35:57;5.75;;;2.55;;
58208;SDS011;44006;52.028;4.696;2023-04-03T06:38:24;5.90;;;2.67;;
58208;SDS011;44006;52.028;4.696;2023-04-03T06:40:49;7.13;;;2.65;;
58208;SDS011;44006;52.028;4.696;2023-04-03T06:43:14;5.65;;;2.50;;
58208;SDS011;44006;52.028;4.696;2023-04-03T06:45:40;7.63;;;3.10;;
58208;SDS011;44006;52.028;4.696;2023-04-03T06:48:05;7.00;;;2.97;;
58208;SDS011;44006;52.028;4.696;2023-04-03T06:50:31;6.95;;;2.40;;
58208;SDS011;44006;52.028;4.696;2023-04-03T06:52:56;7.22;;;2.63;;
58208;SDS011;44006;52.028;4.696;2023-04-03T06:55:21;7.07;;;2.60;;
58208;SDS011;44006;52.028;4.696;2023-04-03T06:57:47;5.00;;;2.35;;
58208;SDS011;44006;52.028;4.696;2023-04-03T07:00:12;5.72;;;2.28;;
58208;SDS011;44006;52.028;4.696;2023-04-03T07:02:38;4.93;;;2.35;;
58208;SDS011;44006;52.028;4.696;2023-04-03T07:05:03;5.00;;;2.30;;
58208;SDS011;44006;52.028;4.696;2023-04-03T07:07:28;6.45;;;2.30;;
58208;SDS011;44006;52.028;4.696;2023-04-03T07:09:54;8.73;;;2.78;;
58208;SDS011;44006;52.028;4.696;2023-04-03T07:12:22;8.02;;;2.38;;
58208;SDS011;44006;52.028;4.696;2023-04-03T07:14:47;9.32;;;2.95;;
58208;SDS011;44006;52.028;4.696;2023-04-03T07:17:12;6.82;;;2.75;;
58208;SDS011;44006;52.028;4.696;2023-04-03T07:19:38;6.93;;;2.03;;
58208;SDS011;44006;52.028;4.696;2023-04-03T07:22:04;8.88;;;2.75;;
58208;SDS011;44006;52.028;4.696;2023-04-03T07:24:29;6.00;;;2.53;;
58208;SDS011;44006;52.028;4.696;2023-04-03T07:26:54;7.45;;;2.70;;
58208;SDS011;44006;52.028;4.696;2023-04-03T07:29:22;7.15;;;2.45;;
58208;SDS011;44006;52.028;4.696;2023-04-03T07:31:48;8.77;;;2.63;;
58208;SDS011;44006;52.028;4.696;2023-04-03T07:34:14;7.22;;;3.50;;
58208;SDS011;44006;52.028;4.696;2023-04-03T07:36:39;6.47;;;2.38;;
58208;SDS011;44006;52.028;4.696;2023-04-03T07:39:05;6.35;;;2.35;;
58208;SDS011;44006;52.028;4.696;2023-04-03T07:41:32;7.78;;;2.70;;
58208;SDS011;44006;52.028;4.696;2023-04-03T07:43:57;5.97;;;2.60;;
58208;SDS011;44006;52.028;4.696;2023-04-03T07:46:24;10.65;;;2.47;;
58208;SDS011;44006;52.028;4.696;2023-04-03T07:48:49;9.85;;;2.65;;
58208;SDS011;44006;52.028;4.696;2023-04-03T07:51:15;10.10;;;2.20;;
58208;SDS011;44006;52.028;4.696;2023-04-03T07:53:41;9.23;;;2.65;;
58208;SDS011;44006;52.028;4.696;2023-04-03T07:56:12;7.30;;;2.20;;
58208;SDS011;44006;52.028;4.696;2023-04-03T07:58:37;6.25;;;2.10;;
58208;SDS011;44006;52.028;4.696;2023-04-03T08:01:03;6.47;;;2.42;;
58208;SDS011;44006;52.028;4.696;2023-04-03T08:03:28;10.10;;;2.53;;
58208;SDS011;44006;52.028;4.696;2023-04-03T08:05:53;6.90;;;2.30;;
58208;SDS011;44006;52.028;4.696;2023-04-03T08:08:20;11.07;;;2.65;;
58208;SDS011;44006;52.028;4.696;2023-04-03T08:10:50;7.95;;;2.17;;
58208;SDS011;44006;52.028;4.696;2023-04-03T08:13:15;4.72;;;1.85;;
58208;SDS011;44006;52.028;4.696;2023-04-03T08:15:41;6.60;;;2.40;;
58208;SDS011;44006;52.028;4.696;2023-04-03T08:18:06;8.15;;;2.40;;
58208;SDS011;44006;52.028;4.696;2023-04-03T08:20:31;5.65;;;2.22;;
58208;SDS011;44006;52.028;4.696;2023-04-03T08:22:56;5.13;;;2.20;;
58208;SDS011;44006;52.028;4.696;2023-04-03T08:25:22;7.32;;;2.00;;
58208;SDS011;44006;52.028;4.696;2023-04-03T08:27:47;9.80;;;2.78;;
58208;SDS011;44006;52.028;4.696;2023-04-03T08:30:13;7.20;;;2.30;;
58208;SDS011;44006;52.028;4.696;2023-04-03T08:32:38;5.43;;;2.22;;
58208;SDS011;44006;52.028;4.696;2023-04-03T08:35:06;8.60;;;2.53;;
58208;SDS011;44006;52.028;4.696;2023-04-03T08:37:34;8.05;;;2.13;;
58208;SDS011;44006;52.028;4.696;2023-04-03T08:39:59;7.97;;;2.30;;
58208;SDS011;44006;52.028;4.696;2023-04-03T08:47:59;6.18;;;2.13;;
58208;SDS011;44006;52.028;4.696;2023-04-03T08:50:30;6.72;;;1.92;;
58208;SDS011;44006;52.028;4.696;2023-04-03T08:52:57;8.30;;;2.00;;
58208;SDS011;44006;52.028;4.696;2023-04-03T08:55:32;4.43;;;1.73;;
58208;SDS011;44006;52.028;4.696;2023-04-03T08:58:18;4.82;;;1.50;;
58208;SDS011;44006;52.028;4.696;2023-04-03T09:00:44;4.72;;;1.60;;
58208;SDS011;44006;52.028;4.696;2023-04-03T09:03:20;6.28;;;1.80;;
58208;SDS011;44006;52.028;4.696;2023-04-03T09:09:02;5.97;;;2.47;;
58208;SDS011;44006;52.028;4.696;2023-04-03T09:15:57;3.35;;;1.20;;
58208;SDS011;44006;52.028;4.696;2023-04-03T09:18:26;3.53;;;1.30;;
58208;SDS011;44006;52.028;4.696;2023-04-03T09:23:33;2.45;;;1.08;;
58208;SDS011;44006;52.028;4.696;2023-04-03T09:26:24;3.90;;;0.98;;
58208;SDS011;44006;52.028;4.696;2023-04-03T09:28:47;3.88;;;1.08;;
58208;SDS011;44006;52.028;4.696;2023-04-03T09:31:35;2.22;;;1.00;;
58208;SDS011;44006;52.028;4.696;2023-04-03T09:34:03;5.53;;;1.10;;
58208;SDS011;44006;52.028;4.696;2023-04-03T09:36:40;2.22;;;1.02;;
58208;SDS011;44006;52.028;4.696;2023-04-03T09:39:11;2.13;;;0.90;;
58208;SDS011;44006;52.028;4.696;2023-04-03T09:41:37;4.47;;;1.05;;
58208;SDS011;44006;52.028;4.696;2023-04-03T09:44:02;2.13;;;1.10;;
58208;SDS011;44006;52.028;4.696;2023-04-03T09:46:29;4.70;;;1.05;;
58208;SDS011;44006;52.028;4.696;2023-04-03T09:48:56;2.78;;;0.93;;
58208;SDS011;44006;52.028;4.696;2023-04-03T09:51:24;4.60;;;1.08;;
58208;SDS011;44006;52.028;4.696;2023-04-03T09:53:51;4.03;;;1.00;;
58208;SDS011;44006;52.028;4.696;2023-04-03T09:58:50;3.38;;;1.00;;
58208;SDS011;44006;52.028;4.696;2023-04-03T10:04:11;2.85;;;0.88;;
58208;SDS011;44006;52.028;4.696;2023-04-03T10:06:43;3.88;;;0.98;;
58208;SDS011;44006;52.028;4.696;2023-04-03T10:14:30;3.13;;;0.80;;
58208;SDS011;44006;52.028;4.696;2023-04-03T10:24:52;2.30;;;0.77;;
58208;SDS011;44006;52.028;4.696;2023-04-03T10:27:36;1.77;;;0.68;;
58208;SDS011;44006;52.028;4.696;2023-04-03T10:30:28;2.92;;;0.85;;
58208;SDS011;44006;52.028;4.696;2023-04-03T10:49:13;2.45;;;0.90;;
58208;SDS011;44006;52.028;4.696;2023-04-03T10:51:41;1.85;;;0.70;;
58208;SDS011;44006;52.028;4.696;2023-04-03T10:54:25;2.22;;;0.73;;
58208;SDS011;44006;52.028;4.696;2023-04-03T10:57:00;2.40;;;0.70;;
58208;SDS011;44006;52.028;4.696;2023-04-03T11:02:07;2.58;;;0.80;;
58208;SDS011;44006;52.028;4.696;2023-04-03T11:04:37;2.15;;;1.00;;
58208;SDS011;44006;52.028;4.696;2023-04-03T11:07:15;2.80;;;0.85;;
58208;SDS011;44006;52.028;4.696;2023-04-03T11:09:44;1.88;;;0.70;;
58208;SDS011;44006;52.028;4.696;2023-04-03T11:12:30;1.70;;;0.73;;
58208;SDS011;44006;52.028;4.696;2023-04-03T11:14:58;2.22;;;0.73;;
58208;SDS011;44006;52.028;4.696;2023-04-03T11:22:29;2.97;;;0.82;;
58208;SDS011;44006;52.028;4.696;2023-04-03T11:25:08;1.13;;;0.70;;
58208;SDS011;44006;52.028;4.696;2023-04-03T11:27:41;0.77;;;0.45;;
58208;SDS011;44006;52.028;4.696;2023-04-03T11:30:11;1.02;;;0.40;;
58208;SDS011;44006;52.028;4.696;2023-04-03T11:32:53;2.55;;;0.77;;
58208;SDS011;44006;52.028;4.696;2023-04-03T11:35:21;2.65;;;0.60;;
58208;SDS011;44006;52.028;4.696;2023-04-03T11:37:48;1.58;;;0.43;;
58208;SDS011;44006;52.028;4.696;2023-04-03T11:42:42;1.15;;;0.47;;
58208;SDS011;44006;52.028;4.696;2023-04-03T11:45:34;0.75;;;0.35;;
58208;SDS011;44006;52.028;4.696;2023-04-03T11:53:00;0.80;;;0.40;;
58208;SDS011;44006;52.028;4.696;2023-04-03T12:05:56;0.63;;;0.47;;
58208;SDS011;44006;52.028;4.696;2023-04-03T12:08:26;2.35;;;0.70;;
58208;SDS011;44006;52.028;4.696;2023-04-03T12:16:03;0.97;;;0.47;;
58208;SDS011;44006;52.028;4.696;2023-04-03T12:21:07;1.23;;;0.40;;
58208;SDS011;44006;52.028;4.696;2023-04-03T12:23:33;0.75;;;0.40;;
58208;SDS011;44006;52.028;4.696;2023-04-03T12:26:01;3.25;;;0.50;;
58208;SDS011;44006;52.028;4.696;2023-04-03T12:28:31;1.17;;;0.63;;
58208;SDS011;44006;52.028;4.696;2023-04-03T12:31:01;1.70;;;0.60;;
58208;SDS011;44006;52.028;4.696;2023-04-03T12:33:30;2.67;;;0.70;;
58208;SDS011;44006;52.028;4.696;2023-04-03T12:36:08;1.13;;;0.60;;
58208;SDS011;44006;52.028;4.696;2023-04-03T12:41:36;2.35;;;0.70;;
58208;SDS011;44006;52.028;4.696;2023-04-03T12:47:07;1.83;;;0.80;;
58208;SDS011;44006;52.028;4.696;2023-04-03T12:51:51;2.80;;;1.10;;
58208;SDS011;44006;52.028;4.696;2023-04-03T12:56:42;3.45;;;0.80;;
58208;SDS011;44006;52.028;4.696;2023-04-03T13:01:40;4.55;;;1.13;;
58208;SDS011;44006;52.028;4.696;2023-04-03T13:04:06;2.97;;;0.80;;
58208;SDS011;44006;52.028;4.696;2023-04-03T13:06:37;3.25;;;1.00;;
58208;SDS011;44006;52.028;4.696;2023-04-03T13:09:03;3.05;;;0.85;;
58208;SDS011;44006;52.028;4.696;2023-04-03T13:11:36;2.45;;;0.80;;
58208;SDS011;44006;52.028;4.696;2023-04-03T13:14:12;1.88;;;0.80;;
58208;SDS011;44006;52.028;4.696;2023-04-03T13:16:42;4.20;;;1.30;;
58208;SDS011;44006;52.028;4.696;2023-04-03T13:22:19;2.85;;;1.00;;
58208;SDS011;44006;52.028;4.696;2023-04-03T13:25:06;3.15;;;0.80;;
58208;SDS011;44006;52.028;4.696;2023-04-03T13:27:31;2.55;;;1.15;;
58208;SDS011;44006;52.028;4.696;2023-04-03T13:29:58;2.20;;;0.90;;
58208;SDS011;44006;52.028;4.696;2023-04-03T13:32:25;3.25;;;0.95;;
58208;SDS011;44006;52.028;4.696;2023-04-03T13:34:51;2.20;;;0.90;;
58208;SDS011;44006;52.028;4.696;2023-04-03T13:40:22;2.80;;;0.93;;
58208;SDS011;44006;52.028;4.696;2023-04-03T13:42:44;2.72;;;1.00;;
58208;SDS011;44006;52.028;4.696;2023-04-03T13:47:39;3.85;;;1.13;;
58208;SDS011;44006;52.028;4.696;2023-04-03T13:52:44;3.92;;;0.90;;
58208;SDS011;44006;52.028;4.696;2023-04-03T13:55:22;5.03;;;1.15;;
58208;SDS011;44006;52.028;4.696;2023-04-03T13:57:52;2.03;;;0.80;;
58208;SDS011;44006;52.028;4.696;2023-04-03T14:00:21;2.08;;;0.90;;
58208;SDS011;44006;52.028;4.696;2023-04-03T14:02:54;3.88;;;1.00;;
58208;SDS011;44006;52.028;4.696;2023-04-03T14:05:19;4.18;;;1.30;;
58208;SDS011;44006;52.028;4.696;2023-04-03T14:07:47;2.95;;;1.02;;
58208;SDS011;44006;52.028;4.696;2023-04-03T14:10:12;2.78;;;1.00;;
58208;SDS011;44006;52.028;4.696;2023-04-03T14:12:38;2.90;;;1.13;;
58208;SDS011;44006;52.028;4.696;2023-04-03T14:15:10;2.72;;;0.90;;
58208;SDS011;44006;52.028;4.696;2023-04-03T14:17:42;3.50;;;0.85;;
58208;SDS011;44006;52.028;4.696;2023-04-03T14:20:13;3.72;;;0.77;;
58208;SDS011;44006;52.028;4.696;2023-04-03T14:22:39;3.00;;;1.10;;
58208;SDS011;44006;52.028;4.696;2023-04-03T14:25:05;2.92;;;1.00;;
58208;SDS011;44006;52.028;4.696;2023-04-03T14:27:34;4.40;;;1.00;;
58208;SDS011;44006;52.028;4.696;2023-04-03T14:30:00;4.50;;;1.10;;
58208;SDS011;44006;52.028;4.696;2023-04-03T14:32:26;2.38;;;1.00;;
58208;SDS011;44006;52.028;4.696;2023-04-03T14:34:57;5.47;;;1.05;;
58208;SDS011;44006;52.028;4.696;2023-04-03T14:37:27;2.60;;;0.98;;
58208;SDS011;44006;52.028;4.696;2023-04-03T14:39:54;2.77;;;1.07;;
58208;SDS011;44006;52.028;4.696;2023-04-03T14:42:21;2.88;;;0.90;;
58208;SDS011;44006;52.028;4.696;2023-04-03T14:44:46;2.53;;;0.93;;
58208;SDS011;44006;52.028;4.696;2023-04-03T14:47:12;4.05;;;1.10;;
58208;SDS011;44006;52.028;4.696;2023-04-03T14:49:41;2.88;;;1.00;;
58208;SDS011;44006;52.028;4.696;2023-04-03T14:52:09;4.80;;;1.08;;
58208;SDS011;44006;52.028;4.696;2023-04-03T14:54:43;4.78;;;1.10;;
58208;SDS011;44006;52.028;4.696;2023-04-03T14:57:08;2.20;;;0.93;;
58208;SDS011;44006;52.028;4.696;2023-04-03T14:59:36;6.53;;;1.30;;
58208;SDS011;44006;52.028;4.696;2023-04-03T15:02:02;2.25;;;1.10;;
58208;SDS011;44006;52.028;4.696;2023-04-03T15:04:27;3.40;;;1.17;;
58208;SDS011;44006;52.028;4.696;2023-04-03T15:06:53;4.45;;;1.20;;
58208;SDS011;44006;52.028;4.696;2023-04-03T15:09:25;2.17;;;0.95;;
58208;SDS011;44006;52.028;4.696;2023-04-03T15:11:51;2.72;;;1.30;;
58208;SDS011;44006;52.028;4.696;2023-04-03T15:14:17;3.80;;;0.93;;
58208;SDS011;44006;52.028;4.696;2023-04-03T15:16:42;4.80;;;1.00;;
58208;SDS011;44006;52.028;4.696;2023-04-03T15:19:08;4.20;;;1.15;;
58208;SDS011;44006;52.028;4.696;2023-04-03T15:21:33;4.40;;;1.33;;
58208;SDS011;44006;52.028;4.696;2023-04-03T15:23:58;3.03;;;1.10;;
58208;SDS011;44006;52.028;4.696;2023-04-03T15:26:24;2.40;;;1.10;;
58208;SDS011;44006;52.028;4.696;2023-04-03T15:28:49;2.45;;;1.20;;
58208;SDS011;44006;52.028;4.696;2023-04-03T15:31:16;2.72;;;1.17;;
58208;SDS011;44006;52.028;4.696;2023-04-03T15:33:41;4.88;;;1.10;;
58208;SDS011;44006;52.028;4.696;2023-04-03T15:36:08;2.83;;;1.10;;
58208;SDS011;44006;52.028;4.696;2023-04-03T15:38:34;2.33;;;1.10;;
58208;SDS011;44006;52.028;4.696;2023-04-03T15:41:00;3.13;;;1.00;;
58208;SDS011;44006;52.028;4.696;2023-04-03T15:43:25;3.22;;;1.13;;
58208;SDS011;44006;52.028;4.696;2023-04-03T15:45:51;4.18;;;1.20;;
58208;SDS011;44006;52.028;4.696;2023-04-03T15:48:16;2.33;;;1.00;;
58208;SDS011;44006;52.028;4.696;2023-04-03T15:50:43;3.45;;;1.27;;
58208;SDS011;44006;52.028;4.696;2023-04-03T15:53:09;6.68;;;1.63;;
58208;SDS011;44006;52.028;4.696;2023-04-03T15:55:35;3.08;;;1.08;;
58208;SDS011;44006;52.028;4.696;2023-04-03T15:58:00;3.33;;;1.40;;
58208;SDS011;44006;52.028;4.696;2023-04-03T16:00:26;2.40;;;1.30;;
58208;SDS011;44006;52.028;4.696;2023-04-03T16:02:53;2.60;;;1.05;;
58208;SDS011;44006;52.028;4.696;2023-04-03T16:05:18;2.55;;;1.23;;
58208;SDS011;44006;52.028;4.696;2023-04-03T16:07:45;6.15;;;1.60;;
58208;SDS011;44006;52.028;4.696;2023-04-03T16:10:11;3.47;;;1.33;;
58208;SDS011;44006;52.028;4.696;2023-04-03T16:12:37;3.17;;;1.20;;
58208;SDS011;44006;52.028;4.696;2023-04-03T16:15:04;3.22;;;1.27;;
58208;SDS011;44006;52.028;4.696;2023-04-03T16:17:29;2.97;;;1.10;;
58208;SDS011;44006;52.028;4.696;2023-04-03T16:19:56;3.63;;;1.30;;
58208;SDS011;44006;52.028;4.696;2023-04-03T16:22:21;4.38;;;1.77;;
58208;SDS011;44006;52.028;4.696;2023-04-03T16:24:48;4.30;;;1.40;;
58208;SDS011;44006;52.028;4.696;2023-04-03T16:27:14;3.40;;;1.25;;
58208;SDS011;44006;52.028;4.696;2023-04-03T16:29:40;3.95;;;1.08;;
58208;SDS011;44006;52.028;4.696;2023-04-03T16:32:06;4.10;;;1.27;;
58208;SDS011;44006;52.028;4.696;2023-04-03T16:34:32;6.28;;;1.38;;
58208;SDS011;44006;52.028;4.696;2023-04-03T16:36:57;3.28;;;1.02;;
58208;SDS011;44006;52.028;4.696;2023-04-03T16:39:23;4.32;;;1.10;;
58208;SDS011;44006;52.028;4.696;2023-04-03T16:41:48;3.65;;;1.45;;
58208;SDS011;44006;52.028;4.696;2023-04-03T16:44:13;3.70;;;1.23;;